sensor_id;sensor_type;location;lat;lon;timestamp;P1;durP1;ratioP1;P2;durP2;ratioP2
55497;SDS011;41357;52.806;18.268;2023-12-20T00:01:40;9.60;;;4.55;;
55497;SDS011;41357;52.806;18.268;2023-12-20T00:04:07;12.10;;;5.80;;
55497;SDS011;41357;52.806;18.268;2023-12-20T00:06:33;9.88;;;4.97;;
55497;SDS011;41357;52.806;18.268;2023-12-20T00:08:59;9.93;;;5.25;;
55497;SDS011;41357;52.806;18.268;2023-12-20T00:11:25;8.00;;;4.80;;
55497;SDS011;41357;52.806;18.268;2023-12-20T00:13:51;10.90;;;5.65;;
55497;SDS011;41357;52.806;18.268;2023-12-20T00:16:18;10.48;;;5.28;;
55497;SDS011;41357;52.806;18.268;2023-12-20T00:18:44;9.85;;;5.32;;
55497;SDS011;41357;52.806;18.268;2023-12-20T00:21:10;10.25;;;5.38;;
55497;SDS011;41357;52.806;18.268;2023-12-20T00:23:36;7.30;;;4.15;;
55497;SDS011;41357;52.806;18.268;2023-12-20T00:26:02;8.95;;;4.72;;
55497;SDS011;41357;52.806;18.268;2023-12-20T00:28:28;6.97;;;4.00;;
55497;SDS011;41357;52.806;18.268;2023-12-20T00:30:54;9.02;;;4.65;;
55497;SDS011;41357;52.806;18.268;2023-12-20T00:33:21;10.15;;;4.78;;
55497;SDS011;41357;52.806;18.268;2023-12-20T00:35:47;9.20;;;5.18;;
55497;SDS011;41357;52.806;18.268;2023-12-20T00:38:13;7.72;;;4.60;;
55497;SDS011;41357;52.806;18.268;2023-12-20T00:40:39;7.25;;;4.25;;
55497;SDS011;41357;52.806;18.268;2023-12-20T00:43:06;7.85;;;4.20;;
55497;SDS011;41357;52.806;18.268;2023-12-20T00:45:32;8.32;;;4.43;;
55497;SDS011;41357;52.806;18.268;2023-12-20T00:47:58;7.63;;;3.75;;
55497;SDS011;41357;52.806;18.268;2023-12-20T00:50:24;6.72;;;4.25;;
55497;SDS011;41357;52.806;18.268;2023-12-20T00:52:50;6.95;;;4.07;;
55497;SDS011;41357;52.806;18.268;2023-12-20T00:55:16;9.13;;;3.92;;
55497;SDS011;41357;52.806;18.268;2023-12-20T00:57:43;7.90;;;4.13;;
55497;SDS011;41357;52.806;18.268;2023-12-20T01:00:09;6.18;;;3.70;;
55497;SDS011;41357;52.806;18.268;2023-12-20T01:02:35;8.52;;;4.50;;
55497;SDS011;41357;52.806;18.268;2023-12-20T01:05:01;5.88;;;3.90;;
55497;SDS011;41357;52.806;18.268;2023-12-20T01:07:28;7.32;;;3.97;;
55497;SDS011;41357;52.806;18.268;2023-12-20T01:09:54;7.20;;;3.92;;
55497;SDS011;41357;52.806;18.268;2023-12-20T01:12:20;9.98;;;3.92;;
55497;SDS011;41357;52.806;18.268;2023-12-20T01:14:46;7.60;;;4.05;;
55497;SDS011;41357;52.806;18.268;2023-12-20T01:17:12;10.13;;;4.05;;
55497;SDS011;41357;52.806;18.268;2023-12-20T01:19:38;6.75;;;4.07;;
55497;SDS011;41357;52.806;18.268;2023-12-20T01:22:04;9.48;;;4.30;;
55497;SDS011;41357;52.806;18.268;2023-12-20T01:24:30;5.47;;;3.63;;
55497;SDS011;41357;52.806;18.268;2023-12-20T01:26:57;6.32;;;3.38;;
55497;SDS011;41357;52.806;18.268;2023-12-20T01:29:23;9.10;;;4.82;;
55497;SDS011;41357;52.806;18.268;2023-12-20T01:31:49;11.40;;;5.88;;
55497;SDS011;41357;52.806;18.268;2023-12-20T01:34:15;5.05;;;3.40;;
55497;SDS011;41357;52.806;18.268;2023-12-20T01:36:42;5.97;;;3.72;;
55497;SDS011;41357;52.806;18.268;2023-12-20T01:39:08;9.05;;;4.60;;
55497;SDS011;41357;52.806;18.268;2023-12-20T01:41:34;10.88;;;4.78;;
55497;SDS011;41357;52.806;18.268;2023-12-20T01:44:00;12.45;;;4.97;;
55497;SDS011;41357;52.806;18.268;2023-12-20T01:46:27;11.75;;;5.05;;
55497;SDS011;41357;52.806;18.268;2023-12-20T01:48:53;8.88;;;4.45;;
55497;SDS011;41357;52.806;18.268;2023-12-20T01:51:19;11.30;;;4.90;;
55497;SDS011;41357;52.806;18.268;2023-12-20T01:53:46;13.80;;;5.70;;
55497;SDS011;41357;52.806;18.268;2023-12-20T01:56:12;10.88;;;4.45;;
55497;SDS011;41357;52.806;18.268;2023-12-20T01:58:40;8.75;;;4.60;;
55497;SDS011;41357;52.806;18.268;2023-12-20T02:01:09;9.55;;;4.30;;
55497;SDS011;41357;52.806;18.268;2023-12-20T02:03:35;9.85;;;4.40;;
55497;SDS011;41357;52.806;18.268;2023-12-20T02:06:02;11.68;;;4.80;;
55497;SDS011;41357;52.806;18.268;2023-12-20T02:08:29;10.18;;;4.65;;
55497;SDS011;41357;52.806;18.268;2023-12-20T02:10:55;7.20;;;4.50;;
55497;SDS011;41357;52.806;18.268;2023-12-20T02:13:22;8.40;;;5.00;;
55497;SDS011;41357;52.806;18.268;2023-12-20T02:15:48;13.50;;;4.97;;
55497;SDS011;41357;52.806;18.268;2023-12-20T02:18:14;12.48;;;5.03;;
55497;SDS011;41357;52.806;18.268;2023-12-20T02:20:41;10.38;;;5.25;;
55497;SDS011;41357;52.806;18.268;2023-12-20T02:23:08;9.07;;;4.68;;
55497;SDS011;41357;52.806;18.268;2023-12-20T02:25:34;6.05;;;3.13;;
55497;SDS011;41357;52.806;18.268;2023-12-20T02:28:00;8.98;;;3.63;;
55497;SDS011;41357;52.806;18.268;2023-12-20T02:30:27;6.45;;;3.72;;
55497;SDS011;41357;52.806;18.268;2023-12-20T02:32:53;7.57;;;4.20;;
55497;SDS011;41357;52.806;18.268;2023-12-20T02:35:19;6.82;;;3.72;;
55497;SDS011;41357;52.806;18.268;2023-12-20T02:37:45;6.47;;;3.53;;
55497;SDS011;41357;52.806;18.268;2023-12-20T02:40:11;7.57;;;3.35;;
55497;SDS011;41357;52.806;18.268;2023-12-20T02:42:38;5.55;;;3.45;;
55497;SDS011;41357;52.806;18.268;2023-12-20T02:45:04;6.85;;;3.83;;
55497;SDS011;41357;52.806;18.268;2023-12-20T02:47:30;8.45;;;4.18;;
55497;SDS011;41357;52.806;18.268;2023-12-20T02:49:56;6.30;;;3.50;;
55497;SDS011;41357;52.806;18.268;2023-12-20T02:52:23;7.55;;;4.13;;
55497;SDS011;41357;52.806;18.268;2023-12-20T02:54:49;6.53;;;3.67;;
55497;SDS011;41357;52.806;18.268;2023-12-20T02:57:15;8.75;;;3.95;;
55497;SDS011;41357;52.806;18.268;2023-12-20T02:59:42;5.82;;;3.60;;
55497;SDS011;41357;52.806;18.268;2023-12-20T03:02:08;6.35;;;3.67;;
55497;SDS011;41357;52.806;18.268;2023-12-20T03:04:34;8.85;;;3.78;;
55497;SDS011;41357;52.806;18.268;2023-12-20T03:07:00;5.10;;;2.95;;
55497;SDS011;41357;52.806;18.268;2023-12-20T03:09:26;7.82;;;3.58;;
55497;SDS011;41357;52.806;18.268;2023-12-20T03:11:52;4.03;;;2.95;;
55497;SDS011;41357;52.806;18.268;2023-12-20T03:14:19;6.90;;;3.88;;
55497;SDS011;41357;52.806;18.268;2023-12-20T03:16:51;4.75;;;3.05;;
55497;SDS011;41357;52.806;18.268;2023-12-20T03:19:17;6.60;;;3.58;;
55497;SDS011;41357;52.806;18.268;2023-12-20T03:21:44;6.90;;;3.60;;
55497;SDS011;41357;52.806;18.268;2023-12-20T03:24:10;5.20;;;3.38;;
55497;SDS011;41357;52.806;18.268;2023-12-20T03:26:36;6.80;;;3.33;;
55497;SDS011;41357;52.806;18.268;2023-12-20T03:29:03;4.15;;;2.22;;
55497;SDS011;41357;52.806;18.268;2023-12-20T03:31:29;5.45;;;2.90;;
55497;SDS011;41357;52.806;18.268;2023-12-20T03:33:55;6.13;;;3.08;;
55497;SDS011;41357;52.806;18.268;2023-12-20T03:36:21;3.38;;;2.08;;
55497;SDS011;41357;52.806;18.268;2023-12-20T03:38:47;5.35;;;3.20;;
55497;SDS011;41357;52.806;18.268;2023-12-20T03:41:13;6.43;;;3.40;;
55497;SDS011;41357;52.806;18.268;2023-12-20T03:43:39;4.85;;;3.13;;
55497;SDS011;41357;52.806;18.268;2023-12-20T03:46:07;5.47;;;3.45;;
55497;SDS011;41357;52.806;18.268;2023-12-20T03:48:34;4.97;;;3.03;;
55497;SDS011;41357;52.806;18.268;2023-12-20T03:51:00;3.42;;;2.47;;
55497;SDS011;41357;52.806;18.268;2023-12-20T03:53:27;5.82;;;3.42;;
55497;SDS011;41357;52.806;18.268;2023-12-20T03:55:53;5.03;;;2.88;;
55497;SDS011;41357;52.806;18.268;2023-12-20T03:58:19;5.65;;;3.28;;
55497;SDS011;41357;52.806;18.268;2023-12-20T04:00:45;7.93;;;3.25;;
55497;SDS011;41357;52.806;18.268;2023-12-20T04:03:11;4.90;;;3.30;;
55497;SDS011;41357;52.806;18.268;2023-12-20T04:05:40;5.88;;;3.30;;
55497;SDS011;41357;52.806;18.268;2023-12-20T04:08:07;3.97;;;2.47;;
55497;SDS011;41357;52.806;18.268;2023-12-20T04:10:33;3.45;;;2.35;;
55497;SDS011;41357;52.806;18.268;2023-12-20T04:12:59;4.72;;;2.67;;
55497;SDS011;41357;52.806;18.268;2023-12-20T04:15:26;4.53;;;2.67;;
55497;SDS011;41357;52.806;18.268;2023-12-20T04:17:52;5.25;;;2.67;;
55497;SDS011;41357;52.806;18.268;2023-12-20T04:20:18;3.50;;;2.28;;
55497;SDS011;41357;52.806;18.268;2023-12-20T04:22:44;4.68;;;2.65;;
55497;SDS011;41357;52.806;18.268;2023-12-20T04:25:10;3.95;;;2.55;;
55497;SDS011;41357;52.806;18.268;2023-12-20T04:27:36;4.72;;;2.58;;
55497;SDS011;41357;52.806;18.268;2023-12-20T04:30:02;4.68;;;3.00;;
55497;SDS011;41357;52.806;18.268;2023-12-20T04:32:29;3.55;;;2.58;;
55497;SDS011;41357;52.806;18.268;2023-12-20T04:34:55;5.22;;;2.80;;
55497;SDS011;41357;52.806;18.268;2023-12-20T04:37:21;7.18;;;3.10;;
55497;SDS011;41357;52.806;18.268;2023-12-20T04:39:47;4.32;;;2.60;;
55497;SDS011;41357;52.806;18.268;2023-12-20T04:42:13;5.72;;;2.83;;
55497;SDS011;41357;52.806;18.268;2023-12-20T04:44:39;3.35;;;2.40;;
55497;SDS011;41357;52.806;18.268;2023-12-20T04:47:05;4.50;;;3.03;;
55497;SDS011;41357;52.806;18.268;2023-12-20T04:49:31;5.13;;;3.17;;
55497;SDS011;41357;52.806;18.268;2023-12-20T04:51:58;5.05;;;3.03;;
55497;SDS011;41357;52.806;18.268;2023-12-20T04:54:24;5.65;;;2.70;;
55497;SDS011;41357;52.806;18.268;2023-12-20T04:56:50;6.03;;;3.33;;
55497;SDS011;41357;52.806;18.268;2023-12-20T04:59:16;9.07;;;3.47;;
55497;SDS011;41357;52.806;18.268;2023-12-20T05:01:42;7.00;;;3.15;;
55497;SDS011;41357;52.806;18.268;2023-12-20T05:04:09;7.18;;;3.85;;
55497;SDS011;41357;52.806;18.268;2023-12-20T05:06:35;9.27;;;3.60;;
55497;SDS011;41357;52.806;18.268;2023-12-20T05:09:01;8.15;;;3.65;;
55497;SDS011;41357;52.806;18.268;2023-12-20T05:11:28;7.25;;;3.33;;
55497;SDS011;41357;52.806;18.268;2023-12-20T05:13:54;4.00;;;3.00;;
55497;SDS011;41357;52.806;18.268;2023-12-20T05:16:20;5.65;;;3.30;;
55497;SDS011;41357;52.806;18.268;2023-12-20T05:18:47;4.70;;;2.97;;
55497;SDS011;41357;52.806;18.268;2023-12-20T05:21:15;9.60;;;4.70;;
55497;SDS011;41357;52.806;18.268;2023-12-20T05:23:42;9.88;;;4.50;;
55497;SDS011;41357;52.806;18.268;2023-12-20T05:26:08;6.50;;;3.80;;
55497;SDS011;41357;52.806;18.268;2023-12-20T05:28:34;6.25;;;3.25;;
55497;SDS011;41357;52.806;18.268;2023-12-20T05:31:00;10.95;;;3.50;;
55497;SDS011;41357;52.806;18.268;2023-12-20T05:33:26;7.43;;;3.40;;
55497;SDS011;41357;52.806;18.268;2023-12-20T05:35:52;9.13;;;3.55;;
55497;SDS011;41357;52.806;18.268;2023-12-20T05:38:18;10.20;;;3.92;;
55497;SDS011;41357;52.806;18.268;2023-12-20T05:40:45;13.90;;;5.97;;
55497;SDS011;41357;52.806;18.268;2023-12-20T05:43:11;13.93;;;4.55;;
55497;SDS011;41357;52.806;18.268;2023-12-20T05:45:37;13.68;;;4.40;;
55497;SDS011;41357;52.806;18.268;2023-12-20T05:48:03;8.57;;;3.40;;
55497;SDS011;41357;52.806;18.268;2023-12-20T05:50:29;9.95;;;3.42;;
55497;SDS011;41357;52.806;18.268;2023-12-20T05:52:55;8.50;;;3.53;;
55497;SDS011;41357;52.806;18.268;2023-12-20T05:55:21;13.07;;;4.30;;
55497;SDS011;41357;52.806;18.268;2023-12-20T05:57:48;4.45;;;2.67;;
55497;SDS011;41357;52.806;18.268;2023-12-20T06:00:14;11.25;;;3.80;;
55497;SDS011;41357;52.806;18.268;2023-12-20T06:02:40;10.93;;;4.38;;
55497;SDS011;41357;52.806;18.268;2023-12-20T06:05:07;7.43;;;3.65;;
55497;SDS011;41357;52.806;18.268;2023-12-20T06:07:33;11.25;;;4.55;;
55497;SDS011;41357;52.806;18.268;2023-12-20T06:09:59;7.70;;;4.32;;
55497;SDS011;41357;52.806;18.268;2023-12-20T06:12:25;11.10;;;4.13;;
55497;SDS011;41357;52.806;18.268;2023-12-20T06:14:57;11.93;;;5.80;;
55497;SDS011;41357;52.806;18.268;2023-12-20T06:17:23;9.90;;;5.88;;
55497;SDS011;41357;52.806;18.268;2023-12-20T06:19:49;8.60;;;4.68;;
55497;SDS011;41357;52.806;18.268;2023-12-20T06:22:15;12.25;;;5.15;;
55497;SDS011;41357;52.806;18.268;2023-12-20T06:24:41;13.10;;;5.68;;
55497;SDS011;41357;52.806;18.268;2023-12-20T06:27:07;12.48;;;6.22;;
55497;SDS011;41357;52.806;18.268;2023-12-20T06:29:33;14.07;;;5.93;;
55497;SDS011;41357;52.806;18.268;2023-12-20T06:32:00;11.63;;;5.32;;
55497;SDS011;41357;52.806;18.268;2023-12-20T06:34:26;12.68;;;6.13;;
55497;SDS011;41357;52.806;18.268;2023-12-20T06:36:52;16.98;;;7.32;;
55497;SDS011;41357;52.806;18.268;2023-12-20T06:39:18;13.45;;;7.40;;
55497;SDS011;41357;52.806;18.268;2023-12-20T06:41:44;17.92;;;6.68;;
55497;SDS011;41357;52.806;18.268;2023-12-20T06:44:10;15.68;;;7.50;;
55497;SDS011;41357;52.806;18.268;2023-12-20T06:46:36;12.15;;;6.82;;
55497;SDS011;41357;52.806;18.268;2023-12-20T06:49:02;12.60;;;5.95;;
55497;SDS011;41357;52.806;18.268;2023-12-20T06:51:28;9.68;;;5.05;;
55497;SDS011;41357;52.806;18.268;2023-12-20T06:53:56;12.57;;;5.93;;
55497;SDS011;41357;52.806;18.268;2023-12-20T06:56:22;9.23;;;5.25;;
55497;SDS011;41357;52.806;18.268;2023-12-20T06:58:48;14.57;;;6.38;;
55497;SDS011;41357;52.806;18.268;2023-12-20T07:01:14;14.70;;;6.28;;
55497;SDS011;41357;52.806;18.268;2023-12-20T07:03:41;11.60;;;5.65;;
55497;SDS011;41357;52.806;18.268;2023-12-20T07:06:07;12.20;;;5.93;;
55497;SDS011;41357;52.806;18.268;2023-12-20T07:08:33;10.50;;;5.72;;
55497;SDS011;41357;52.806;18.268;2023-12-20T07:10:59;9.38;;;5.53;;
55497;SDS011;41357;52.806;18.268;2023-12-20T07:13:25;9.73;;;5.28;;
55497;SDS011;41357;52.806;18.268;2023-12-20T07:15:52;9.38;;;5.03;;
55497;SDS011;41357;52.806;18.268;2023-12-20T07:18:18;7.32;;;3.80;;
55497;SDS011;41357;52.806;18.268;2023-12-20T07:20:44;7.65;;;3.85;;
55497;SDS011;41357;52.806;18.268;2023-12-20T07:23:10;9.10;;;4.32;;
55497;SDS011;41357;52.806;18.268;2023-12-20T07:25:36;14.90;;;4.55;;
55497;SDS011;41357;52.806;18.268;2023-12-20T07:28:02;10.02;;;5.40;;
55497;SDS011;41357;52.806;18.268;2023-12-20T07:30:28;11.43;;;4.55;;
55497;SDS011;41357;52.806;18.268;2023-12-20T07:32:54;11.15;;;5.93;;
55497;SDS011;41357;52.806;18.268;2023-12-20T07:35:21;11.45;;;5.00;;
55497;SDS011;41357;52.806;18.268;2023-12-20T07:37:47;14.35;;;5.80;;
55497;SDS011;41357;52.806;18.268;2023-12-20T07:40:13;13.80;;;5.72;;
55497;SDS011;41357;52.806;18.268;2023-12-20T07:42:42;8.30;;;4.82;;
55497;SDS011;41357;52.806;18.268;2023-12-20T07:45:08;13.27;;;6.38;;
55497;SDS011;41357;52.806;18.268;2023-12-20T07:47:35;10.38;;;4.97;;
55497;SDS011;41357;52.806;18.268;2023-12-20T07:50:02;10.02;;;4.50;;
55497;SDS011;41357;52.806;18.268;2023-12-20T07:52:28;8.38;;;4.25;;
55497;SDS011;41357;52.806;18.268;2023-12-20T07:54:55;7.20;;;4.18;;
55497;SDS011;41357;52.806;18.268;2023-12-20T07:57:21;9.80;;;4.43;;
55497;SDS011;41357;52.806;18.268;2023-12-20T07:59:47;14.15;;;5.43;;
55497;SDS011;41357;52.806;18.268;2023-12-20T08:02:13;13.02;;;4.35;;
55497;SDS011;41357;52.806;18.268;2023-12-20T08:04:40;10.35;;;4.95;;
55497;SDS011;41357;52.806;18.268;2023-12-20T08:07:06;8.32;;;4.47;;
55497;SDS011;41357;52.806;18.268;2023-12-20T08:09:32;9.55;;;5.20;;
55497;SDS011;41357;52.806;18.268;2023-12-20T08:12:01;11.65;;;5.70;;
55497;SDS011;41357;52.806;18.268;2023-12-20T08:14:28;12.02;;;5.68;;
55497;SDS011;41357;52.806;18.268;2023-12-20T08:16:54;10.80;;;5.07;;
55497;SDS011;41357;52.806;18.268;2023-12-20T08:19:20;9.48;;;4.18;;
55497;SDS011;41357;52.806;18.268;2023-12-20T08:21:46;7.28;;;3.60;;
55497;SDS011;41357;52.806;18.268;2023-12-20T08:24:12;8.75;;;4.65;;
55497;SDS011;41357;52.806;18.268;2023-12-20T08:26:38;7.72;;;4.15;;
55497;SDS011;41357;52.806;18.268;2023-12-20T08:29:04;9.00;;;5.05;;
55497;SDS011;41357;52.806;18.268;2023-12-20T08:31:30;7.50;;;4.50;;
55497;SDS011;41357;52.806;18.268;2023-12-20T08:33:56;6.68;;;4.18;;
55497;SDS011;41357;52.806;18.268;2023-12-20T08:36:22;10.32;;;4.00;;
55497;SDS011;41357;52.806;18.268;2023-12-20T08:38:49;11.32;;;5.00;;
55497;SDS011;41357;52.806;18.268;2023-12-20T08:41:16;9.45;;;4.38;;
55497;SDS011;41357;52.806;18.268;2023-12-20T08:43:43;9.88;;;5.28;;
55497;SDS011;41357;52.806;18.268;2023-12-20T08:46:09;11.35;;;5.00;;
55497;SDS011;41357;52.806;18.268;2023-12-20T08:48:35;8.05;;;4.18;;
55497;SDS011;41357;52.806;18.268;2023-12-20T08:51:02;12.23;;;4.60;;
55497;SDS011;41357;52.806;18.268;2023-12-20T08:53:28;12.68;;;5.20;;
55497;SDS011;41357;52.806;18.268;2023-12-20T08:55:54;10.05;;;5.93;;
55497;SDS011;41357;52.806;18.268;2023-12-20T08:58:21;18.05;;;7.03;;
55497;SDS011;41357;52.806;18.268;2023-12-20T09:00:47;17.90;;;7.82;;
55497;SDS011;41357;52.806;18.268;2023-12-20T09:03:13;17.25;;;8.90;;
55497;SDS011;41357;52.806;18.268;2023-12-20T09:05:39;20.40;;;8.55;;
55497;SDS011;41357;52.806;18.268;2023-12-20T09:08:05;19.40;;;8.23;;
55497;SDS011;41357;52.806;18.268;2023-12-20T09:10:32;22.23;;;9.40;;
55497;SDS011;41357;52.806;18.268;2023-12-20T09:12:59;22.33;;;9.13;;
55497;SDS011;41357;52.806;18.268;2023-12-20T09:15:26;19.33;;;10.43;;
55497;SDS011;41357;52.806;18.268;2023-12-20T09:17:52;26.33;;;9.68;;
55497;SDS011;41357;52.806;18.268;2023-12-20T09:20:19;13.30;;;6.78;;
55497;SDS011;41357;52.806;18.268;2023-12-20T09:22:45;9.02;;;4.72;;
55497;SDS011;41357;52.806;18.268;2023-12-20T09:25:11;12.15;;;4.93;;
55497;SDS011;41357;52.806;18.268;2023-12-20T09:27:38;31.25;;;11.23;;
55497;SDS011;41357;52.806;18.268;2023-12-20T09:30:04;43.38;;;15.55;;
55497;SDS011;41357;52.806;18.268;2023-12-20T09:32:31;33.47;;;14.30;;
55497;SDS011;41357;52.806;18.268;2023-12-20T09:34:57;11.07;;;6.72;;
55497;SDS011;41357;52.806;18.268;2023-12-20T09:37:25;11.30;;;5.82;;
55497;SDS011;41357;52.806;18.268;2023-12-20T09:39:51;9.38;;;4.78;;
55497;SDS011;41357;52.806;18.268;2023-12-20T09:42:20;14.05;;;5.53;;
55497;SDS011;41357;52.806;18.268;2023-12-20T09:44:47;10.75;;;5.03;;
55497;SDS011;41357;52.806;18.268;2023-12-20T09:47:13;7.40;;;3.30;;
55497;SDS011;41357;52.806;18.268;2023-12-20T09:49:41;5.35;;;3.47;;
55497;SDS011;41357;52.806;18.268;2023-12-20T09:52:08;9.88;;;4.25;;
55497;SDS011;41357;52.806;18.268;2023-12-20T09:54:35;8.95;;;3.97;;
55497;SDS011;41357;52.806;18.268;2023-12-20T09:57:01;6.60;;;3.97;;
55497;SDS011;41357;52.806;18.268;2023-12-20T09:59:27;7.65;;;3.38;;
55497;SDS011;41357;52.806;18.268;2023-12-20T10:01:55;6.90;;;2.97;;
55497;SDS011;41357;52.806;18.268;2023-12-20T10:04:24;10.98;;;3.63;;
55497;SDS011;41357;52.806;18.268;2023-12-20T10:06:50;8.40;;;3.80;;
55497;SDS011;41357;52.806;18.268;2023-12-20T10:09:17;8.20;;;3.53;;
55497;SDS011;41357;52.806;18.268;2023-12-20T10:11:43;5.95;;;2.38;;
55497;SDS011;41357;52.806;18.268;2023-12-20T10:14:10;10.38;;;3.95;;
55497;SDS011;41357;52.806;18.268;2023-12-20T10:16:36;5.38;;;2.80;;
55497;SDS011;41357;52.806;18.268;2023-12-20T10:19:02;6.07;;;3.22;;
55497;SDS011;41357;52.806;18.268;2023-12-20T10:21:29;5.10;;;1.80;;
55497;SDS011;41357;52.806;18.268;2023-12-20T10:23:55;9.95;;;3.55;;
55497;SDS011;41357;52.806;18.268;2023-12-20T10:26:22;7.78;;;4.05;;
55497;SDS011;41357;52.806;18.268;2023-12-20T10:29:01;13.18;;;6.18;;
55497;SDS011;41357;52.806;18.268;2023-12-20T10:31:30;10.85;;;4.32;;
55497;SDS011;41357;52.806;18.268;2023-12-20T10:33:56;8.90;;;3.92;;
55497;SDS011;41357;52.806;18.268;2023-12-20T10:36:24;5.60;;;2.97;;
55497;SDS011;41357;52.806;18.268;2023-12-20T10:38:51;5.55;;;3.58;;
55497;SDS011;41357;52.806;18.268;2023-12-20T10:41:25;5.88;;;3.00;;
55497;SDS011;41357;52.806;18.268;2023-12-20T10:43:53;6.82;;;3.05;;
55497;SDS011;41357;52.806;18.268;2023-12-20T10:46:19;7.50;;;3.10;;
55497;SDS011;41357;52.806;18.268;2023-12-20T10:48:46;8.27;;;3.40;;
55497;SDS011;41357;52.806;18.268;2023-12-20T10:51:13;6.75;;;2.47;;
55497;SDS011;41357;52.806;18.268;2023-12-20T10:53:40;9.52;;;2.22;;
55497;SDS011;41357;52.806;18.268;2023-12-20T10:56:06;6.45;;;2.50;;
55497;SDS011;41357;52.806;18.268;2023-12-20T10:58:34;4.82;;;1.85;;
55497;SDS011;41357;52.806;18.268;2023-12-20T11:01:01;4.50;;;1.77;;
55497;SDS011;41357;52.806;18.268;2023-12-20T11:03:27;4.00;;;1.95;;
55497;SDS011;41357;52.806;18.268;2023-12-20T11:06:01;7.53;;;2.20;;
55497;SDS011;41357;52.806;18.268;2023-12-20T11:11:10;4.30;;;1.65;;
55497;SDS011;41357;52.806;18.268;2023-12-20T11:13:48;8.35;;;2.42;;
55497;SDS011;41357;52.806;18.268;2023-12-20T11:16:19;14.27;;;4.45;;
55497;SDS011;41357;52.806;18.268;2023-12-20T11:18:45;17.38;;;5.78;;
55497;SDS011;41357;52.806;18.268;2023-12-20T11:21:11;9.45;;;2.65;;
55497;SDS011;41357;52.806;18.268;2023-12-20T11:23:39;12.95;;;2.97;;
55497;SDS011;41357;52.806;18.268;2023-12-20T11:26:08;11.55;;;3.45;;
55497;SDS011;41357;52.806;18.268;2023-12-20T11:28:34;12.55;;;2.75;;
55497;SDS011;41357;52.806;18.268;2023-12-20T11:31:01;4.95;;;2.13;;
55497;SDS011;41357;52.806;18.268;2023-12-20T11:33:31;8.75;;;2.50;;
55497;SDS011;41357;52.806;18.268;2023-12-20T11:35:57;13.77;;;3.20;;
55497;SDS011;41357;52.806;18.268;2023-12-20T11:38:35;4.65;;;2.50;;
55497;SDS011;41357;52.806;18.268;2023-12-20T11:41:04;6.45;;;2.47;;
55497;SDS011;41357;52.806;18.268;2023-12-20T11:43:37;6.80;;;2.45;;
55497;SDS011;41357;52.806;18.268;2023-12-20T11:46:07;5.82;;;2.30;;
55497;SDS011;41357;52.806;18.268;2023-12-20T11:48:35;5.05;;;1.85;;
55497;SDS011;41357;52.806;18.268;2023-12-20T11:51:01;7.72;;;1.65;;
55497;SDS011;41357;52.806;18.268;2023-12-20T11:53:29;8.40;;;2.83;;
55497;SDS011;41357;52.806;18.268;2023-12-20T11:55:57;3.42;;;1.17;;
55497;SDS011;41357;52.806;18.268;2023-12-20T11:58:23;6.70;;;2.13;;
55497;SDS011;41357;52.806;18.268;2023-12-20T12:00:49;6.60;;;2.00;;
55497;SDS011;41357;52.806;18.268;2023-12-20T12:03:17;10.48;;;2.95;;
55497;SDS011;41357;52.806;18.268;2023-12-20T12:05:43;11.27;;;2.50;;
55497;SDS011;41357;52.806;18.268;2023-12-20T12:08:09;3.28;;;1.48;;
55497;SDS011;41357;52.806;18.268;2023-12-20T12:10:35;6.70;;;2.17;;
55497;SDS011;41357;52.806;18.268;2023-12-20T12:13:01;6.40;;;2.35;;
55497;SDS011;41357;52.806;18.268;2023-12-20T12:15:27;6.53;;;2.25;;
55497;SDS011;41357;52.806;18.268;2023-12-20T12:17:55;9.35;;;2.15;;
55497;SDS011;41357;52.806;18.268;2023-12-20T12:20:21;9.38;;;2.53;;
55497;SDS011;41357;52.806;18.268;2023-12-20T12:23:01;6.72;;;2.45;;
55497;SDS011;41357;52.806;18.268;2023-12-20T12:25:28;8.00;;;2.17;;
55497;SDS011;41357;52.806;18.268;2023-12-20T12:27:55;6.10;;;2.17;;
55497;SDS011;41357;52.806;18.268;2023-12-20T12:30:21;4.95;;;1.92;;
55497;SDS011;41357;52.806;18.268;2023-12-20T12:32:47;6.32;;;2.50;;
55497;SDS011;41357;52.806;18.268;2023-12-20T12:35:14;10.95;;;3.10;;
55497;SDS011;41357;52.806;18.268;2023-12-20T12:37:40;9.45;;;3.45;;
55497;SDS011;41357;52.806;18.268;2023-12-20T12:40:11;4.60;;;2.22;;
55497;SDS011;41357;52.806;18.268;2023-12-20T12:42:38;7.30;;;1.80;;
55497;SDS011;41357;52.806;18.268;2023-12-20T12:45:04;6.72;;;2.25;;
55497;SDS011;41357;52.806;18.268;2023-12-20T12:47:31;4.10;;;1.90;;
55497;SDS011;41357;52.806;18.268;2023-12-20T12:49:57;6.90;;;2.75;;
55497;SDS011;41357;52.806;18.268;2023-12-20T12:52:23;7.03;;;3.00;;
55497;SDS011;41357;52.806;18.268;2023-12-20T12:54:49;5.75;;;2.67;;
55497;SDS011;41357;52.806;18.268;2023-12-20T12:57:16;4.20;;;1.98;;
55497;SDS011;41357;52.806;18.268;2023-12-20T12:59:42;6.93;;;2.80;;
55497;SDS011;41357;52.806;18.268;2023-12-20T13:02:10;8.15;;;3.50;;
55497;SDS011;41357;52.806;18.268;2023-12-20T13:04:37;9.35;;;3.30;;
55497;SDS011;41357;52.806;18.268;2023-12-20T13:07:03;10.82;;;3.40;;
55497;SDS011;41357;52.806;18.268;2023-12-20T13:09:29;8.52;;;3.53;;
55497;SDS011;41357;52.806;18.268;2023-12-20T13:11:55;3.80;;;2.03;;
55497;SDS011;41357;52.806;18.268;2023-12-20T13:14:22;5.80;;;2.78;;
55497;SDS011;41357;52.806;18.268;2023-12-20T13:16:48;7.40;;;3.33;;
55497;SDS011;41357;52.806;18.268;2023-12-20T13:19:14;6.43;;;2.70;;
55497;SDS011;41357;52.806;18.268;2023-12-20T13:21:40;8.80;;;2.58;;
55497;SDS011;41357;52.806;18.268;2023-12-20T13:24:06;7.43;;;2.10;;
55497;SDS011;41357;52.806;18.268;2023-12-20T13:26:32;3.38;;;1.88;;
55497;SDS011;41357;52.806;18.268;2023-12-20T13:29:01;8.18;;;2.70;;
55497;SDS011;41357;52.806;18.268;2023-12-20T13:31:27;7.05;;;2.85;;
55497;SDS011;41357;52.806;18.268;2023-12-20T13:33:53;5.13;;;2.45;;
55497;SDS011;41357;52.806;18.268;2023-12-20T13:36:19;8.07;;;2.45;;
55497;SDS011;41357;52.806;18.268;2023-12-20T13:38:45;7.97;;;3.05;;
55497;SDS011;41357;52.806;18.268;2023-12-20T13:41:12;7.00;;;2.30;;
55497;SDS011;41357;52.806;18.268;2023-12-20T13:43:38;7.03;;;2.67;;
55497;SDS011;41357;52.806;18.268;2023-12-20T13:46:04;10.40;;;2.88;;
55497;SDS011;41357;52.806;18.268;2023-12-20T13:48:30;12.55;;;3.83;;
55497;SDS011;41357;52.806;18.268;2023-12-20T13:50:56;6.63;;;3.20;;
55497;SDS011;41357;52.806;18.268;2023-12-20T13:53:22;11.20;;;2.67;;
55497;SDS011;41357;52.806;18.268;2023-12-20T13:55:48;6.55;;;2.50;;
55497;SDS011;41357;52.806;18.268;2023-12-20T13:58:14;7.03;;;2.90;;
55497;SDS011;41357;52.806;18.268;2023-12-20T14:00:41;6.45;;;2.45;;
55497;SDS011;41357;52.806;18.268;2023-12-20T14:03:07;6.88;;;2.38;;
55497;SDS011;41357;52.806;18.268;2023-12-20T14:05:35;6.80;;;3.08;;
55497;SDS011;41357;52.806;18.268;2023-12-20T14:08:01;12.65;;;5.63;;
55497;SDS011;41357;52.806;18.268;2023-12-20T14:10:27;13.00;;;5.57;;
55497;SDS011;41357;52.806;18.268;2023-12-20T14:12:54;8.63;;;3.10;;
55497;SDS011;41357;52.806;18.268;2023-12-20T14:15:20;9.65;;;3.10;;
55497;SDS011;41357;52.806;18.268;2023-12-20T14:17:46;5.15;;;2.47;;
55497;SDS011;41357;52.806;18.268;2023-12-20T14:20:12;10.38;;;2.70;;
55497;SDS011;41357;52.806;18.268;2023-12-20T14:22:38;9.98;;;3.40;;
55497;SDS011;41357;52.806;18.268;2023-12-20T14:25:10;11.23;;;4.70;;
55497;SDS011;41357;52.806;18.268;2023-12-20T14:27:37;24.63;;;7.25;;
55497;SDS011;41357;52.806;18.268;2023-12-20T14:30:03;12.23;;;4.60;;